createdAt,value
2022-09-01T00:01:27.363Z,93.79
2022-09-01T00:03:55.922Z,93.55
2022-09-01T00:06:24.845Z,93.06
2022-09-01T00:08:54.704Z,92.10
2022-09-01T00:11:23.671Z,91.48
2022-09-01T00:13:50.909Z,92.00
2022-09-01T00:16:20.031Z,92.79
2022-09-01T00:18:50.683Z,92.79
2022-09-01T00:21:30.510Z,93.89
2022-09-01T00:23:58.026Z,95.17
2022-09-01T00:26:24.996Z,99.05
2022-09-01T00:28:52.034Z,100.00
2022-09-01T00:31:20.302Z,100.00
2022-09-01T00:33:49.183Z,100.00
2022-09-01T00:36:17.775Z,100.00
2022-09-01T00:38:45.307Z,100.00
2022-09-01T00:41:13.267Z,100.00
2022-09-01T00:43:50.549Z,100.00
2022-09-01T00:46:30.428Z,100.00
2022-09-01T00:49:03.282Z,100.00
2022-09-01T00:51:33.460Z,100.00
2022-09-01T00:54:01.851Z,100.00
2022-09-01T00:56:30.690Z,100.00
2022-09-01T00:58:57.834Z,100.00
2022-09-01T01:01:24.824Z,100.00
2022-09-01T01:03:52.495Z,100.00
2022-09-01T01:06:23.949Z,100.00
2022-09-01T01:08:57.979Z,100.00
2022-09-01T01:11:28.160Z,100.00
2022-09-01T01:14:15.689Z,100.00
2022-09-01T01:16:45.394Z,100.00
2022-09-01T01:19:49.240Z,100.00
2022-09-01T01:23:05.695Z,100.00
2022-09-01T01:25:40.594Z,100.00
2022-09-01T01:28:22.519Z,100.00
2022-09-01T01:30:56.190Z,100.00
2022-09-01T01:33:33.084Z,100.00
2022-09-01T01:36:02.106Z,100.00
2022-09-01T01:38:30.435Z,100.00
2022-09-01T01:40:58.922Z,100.00
2022-09-01T01:43:27.763Z,100.00
2022-09-01T01:45:59.320Z,100.00
2022-09-01T01:48:34.759Z,100.00
2022-09-01T01:51:02.583Z,100.00
2022-09-01T01:53:29.818Z,100.00
2022-09-01T01:55:59.174Z,100.00
2022-09-01T01:58:30.566Z,100.00
2022-09-01T02:00:59.258Z,100.00
2022-09-01T02:03:31.249Z,100.00
2022-09-01T02:06:01.371Z,100.00
2022-09-01T02:08:28.463Z,100.00
2022-09-01T02:10:57.981Z,100.00
2022-09-01T02:13:31.412Z,100.00
2022-09-01T02:16:02.256Z,100.00
2022-09-01T02:18:38.581Z,100.00
2022-09-01T02:21:16.413Z,100.00
2022-09-01T02:23:48.982Z,100.00
2022-09-01T02:26:19.210Z,100.00
2022-09-01T02:28:54.895Z,100.00
2022-09-01T02:31:28.332Z,100.00
2022-09-01T02:33:57.554Z,100.00
2022-09-01T02:36:25.873Z,100.00
2022-09-01T02:38:55.224Z,100.00
2022-09-01T02:41:25.350Z,100.00
2022-09-01T02:43:54.375Z,100.00
2022-09-01T02:46:24.916Z,100.00
2022-09-01T02:48:53.503Z,100.00
2022-09-01T02:51:25.925Z,100.00
2022-09-01T02:53:53.774Z,100.00
2022-09-01T02:56:25.931Z,100.00
2022-09-01T02:58:54.580Z,100.00
2022-09-01T03:01:30.385Z,100.00
2022-09-01T03:04:05.955Z,100.00
2022-09-01T03:06:34.783Z,100.00
2022-09-01T03:09:04.467Z,100.00
2022-09-01T03:11:34.509Z,100.00
2022-09-01T03:14:01.740Z,100.00
2022-09-01T03:16:33.388Z,100.00
2022-09-01T03:19:03.424Z,100.00
2022-09-01T03:21:32.279Z,100.00
2022-09-01T03:24:02.272Z,100.00
2022-09-01T03:26:30.775Z,100.00
2022-09-01T03:28:59.306Z,100.00
2022-09-01T03:31:31.107Z,100.00
2022-09-01T03:34:01.045Z,100.00
2022-09-01T03:36:33.552Z,100.00
2022-09-01T03:39:01.149Z,100.00
2022-09-01T03:41:31.081Z,100.00
2022-09-01T03:43:59.548Z,100.00
2022-09-01T03:46:36.449Z,100.00
2022-09-01T03:49:07.607Z,100.00
2022-09-01T03:51:39.383Z,100.00
2022-09-01T03:54:08.435Z,100.00
2022-09-01T03:56:35.800Z,100.00
2022-09-01T03:59:02.932Z,100.00
2022-09-01T04:01:38.195Z,100.00
2022-09-01T04:04:06.821Z,100.00
2022-09-01T04:06:36.947Z,100.00
2022-09-01T04:09:03.998Z,100.00
2022-09-01T04:11:33.707Z,100.00
2022-09-01T04:14:02.139Z,100.00
2022-09-01T04:16:53.420Z,100.00
2022-09-01T04:19:26.840Z,100.00
2022-09-01T04:22:02.130Z,100.00
2022-09-01T04:24:49.378Z,100.00
2022-09-01T04:27:18.462Z,100.00
2022-09-01T04:29:48.670Z,100.00
2022-09-01T04:32:17.182Z,100.00
2022-09-01T04:34:50.212Z,100.00
2022-09-01T04:37:22.267Z,100.00
2022-09-01T04:40:08.082Z,100.00
2022-09-01T04:42:35.162Z,100.00
2022-09-01T04:45:10.572Z,100.00
